Time;durP1;ratioP1;P1;durP2;ratioP2;P2;SDS_P1;SDS_P2;PMS_P1;PMS_P2;Temp;Humidity;BMP_temperature;BMP_pressure;BME280_temperature;BME280_humidity;BME280_pressure;Samples;Min_cycle;Max_cycle;Signal;HPM_P1;HPM_P2
2023/07/08 00:00:43;;;;;;;7.33;6.40;;;;;;;23.71;38.39;98803.94;6946756;28;20199;-84
2023/07/08 00:04:07;;;;;;;8.20;5.70;;;;;;;24.17;37.65;98788.59;6945931;28;20252;-84
2023/07/08 00:07:28;;;;;;;7.67;5.67;;;;;;;23.90;37.73;98805.69;6945516;28;20265;-84
2023/07/08 00:10:50;;;;;;;8.50;6.23;;;;;;;23.58;38.50;98799.94;6946351;28;20695;-84
2023/07/08 00:14:13;;;;;;;7.40;5.90;;;;;;;23.84;38.33;98790.31;6945885;28;20249;-84
2023/07/08 00:17:34;;;;;;;7.73;6.10;;;;;;;23.93;38.05;98774.00;6945203;28;20251;-83
2023/07/08 00:20:56;;;;;;;7.37;6.23;;;;;;;23.84;37.80;98762.75;6946721;28;20608;-84
2023/07/08 00:24:17;;;;;;;7.67;5.70;;;;;;;23.89;38.03;98776.50;6945939;28;20659;-84
2023/07/08 00:27:39;;;;;;;7.60;6.03;;;;;;;23.86;37.79;98766.06;6944994;28;20277;-84
2023/07/08 00:31:01;;;;;;;7.57;5.90;;;;;;;23.81;38.31;98766.13;6945795;28;20251;-84
2023/07/08 00:34:23;;;;;;;7.03;5.93;;;;;;;23.53;38.81;98771.59;6945442;28;20333;-84
2023/07/08 00:37:46;;;;;;;7.23;5.83;;;;;;;23.41;39.11;98772.00;6945064;28;20237;-85
2023/07/08 00:41:12;;;;;;;7.27;5.93;;;;;;;23.67;38.63;98769.84;6945929;28;20653;-84
2023/07/08 00:44:33;;;;;;;7.90;6.23;;;;;;;23.48;38.87;98777.97;6945338;28;20263;-84
2023/07/08 00:47:57;;;;;;;6.87;5.73;;;;;;;23.52;38.43;98770.81;6945127;28;20279;-83
2023/07/08 00:51:20;;;;;;;6.20;5.57;;;;;;;23.61;38.15;98780.06;6945592;28;20230;-83
2023/07/08 00:54:42;;;;;;;5.97;4.87;;;;;;;22.93;39.58;98763.81;6945260;28;20213;-84
2023/07/08 00:58:03;;;;;;;8.13;6.13;;;;;;;23.10;39.86;98791.75;6945231;28;20241;-84
2023/07/08 01:01:25;;;;;;;8.13;6.10;;;;;;;23.32;39.32;98793.00;6944039;28;20606;-84
2023/07/08 01:04:52;;;;;;;8.60;5.77;;;;;;;23.33;39.35;98780.06;6945290;28;20547;-84
2023/07/08 01:08:16;;;;;;;9.30;6.40;;;;;;;23.41;38.69;98783.00;6940746;28;20229;-83
2023/07/08 01:11:38;;;;;;;8.30;5.40;;;;;;;23.33;38.85;98796.56;6944044;28;20257;-84
2023/07/08 01:15:02;;;;;;;9.03;6.20;;;;;;;22.81;39.20;98752.34;6944861;28;20216;-84
2023/07/08 01:18:24;;;;;;;6.70;5.70;;;;;;;23.29;39.40;98792.72;6944283;28;20306;-82
2023/07/08 01:21:59;;;;;;;7.03;6.30;;;;;;;23.55;38.16;98785.91;6948367;28;20798;-82
2023/07/08 01:25:21;;;;;;;7.03;5.90;;;;;;;23.12;39.18;98768.34;6947907;28;20199;-83
2023/07/08 01:28:43;;;;;;;9.97;6.30;;;;;;;23.07;39.55;98793.13;6947380;28;20630;-82
2023/07/08 01:32:05;;;;;;;6.00;5.23;;;;;;;23.01;39.98;98788.78;6947742;28;20228;-82
2023/07/08 01:35:26;;;;;;;9.47;5.93;;;;;;;23.00;40.10;98783.56;6947242;28;20211;-83
2023/07/08 01:38:49;;;;;;;7.47;6.33;;;;;;;22.53;41.17;98786.88;6947823;28;20309;-83
2023/07/08 01:42:11;;;;;;;8.20;6.33;;;;;;;22.71;41.24;98771.66;6947600;28;20663;-82
2023/07/08 01:45:35;;;;;;;7.13;5.50;;;;;;;22.77;40.25;98757.59;6947996;28;20203;-82
2023/07/08 01:48:58;;;;;;;7.60;5.83;;;;;;;23.01;39.63;98776.97;6947525;28;20324;-82
2023/07/08 01:52:19;;;;;;;8.83;6.60;;;;;;;22.57;40.81;98778.88;6947135;28;20289;-82
2023/07/08 01:55:42;;;;;;;7.10;5.97;;;;;;;22.76;40.54;98779.88;6947551;28;20453;-83
2023/07/08 01:59:04;;;;;;;7.23;5.63;;;;;;;22.65;40.37;98775.56;6948054;28;20370;-82
2023/07/08 02:02:25;;;;;;;8.53;6.37;;;;;;;22.44;41.12;98777.59;6947398;28;20271;-83
2023/07/08 02:05:47;;;;;;;8.23;6.13;;;;;;;22.51;40.87;98769.84;6946666;28;20294;-82
2023/07/08 02:09:08;;;;;;;9.27;5.80;;;;;;;21.98;40.83;98699.19;6947057;28;20312;-82
2023/07/08 02:12:31;;;;;;;7.40;6.00;;;;;;;22.33;41.04;98740.25;6944694;28;20277;-84
2023/07/08 02:15:53;;;;;;;8.03;5.73;;;;;;;22.22;41.30;98776.25;6942627;28;20268;-84
2023/07/08 02:19:14;;;;;;;7.27;5.77;;;;;;;22.23;41.86;98772.41;6943334;28;20317;-84
2023/07/08 02:22:36;;;;;;;6.77;5.70;;;;;;;21.94;41.85;98735.69;6942695;28;20209;-84
2023/07/08 02:25:58;;;;;;;7.80;6.20;;;;;;;22.35;41.08;98776.47;6942539;28;20574;-84
2023/07/08 02:29:20;;;;;;;7.07;6.07;;;;;;;22.15;41.99;98779.31;6943093;28;20283;-84
2023/07/08 02:32:56;;;;;;;7.77;5.90;;;;;;;22.18;41.08;98762.25;6944201;28;20465;-83
2023/07/08 02:36:18;;;;;;;10.33;6.30;;;;;;;22.31;41.05;98780.06;6943701;28;20695;-83
2023/07/08 02:39:39;;;;;;;6.83;5.87;;;;;;;22.30;41.05;98784.75;6944513;28;20688;-83
2023/07/08 02:43:01;;;;;;;7.43;5.80;;;;;;;22.27;41.19;98793.56;6944484;28;20204;-83
2023/07/08 02:46:23;;;;;;;7.20;6.13;;;;;;;22.21;40.62;98764.47;6944175;28;20258;-83
2023/07/08 02:49:46;;;;;;;8.30;6.37;;;;;;;21.89;42.00;98794.19;6943924;28;20246;-83
2023/07/08 02:53:08;;;;;;;6.67;5.70;;;;;;;21.98;41.83;98800.78;6944767;28;20234;-82
2023/07/08 02:56:29;;;;;;;6.53;5.10;;;;;;;22.10;41.79;98820.53;6947038;28;20253;-82
2023/07/08 02:59:51;;;;;;;6.87;5.93;;;;;;;22.34;40.42;98815.22;6948034;28;20203;-82
2023/07/08 03:03:15;;;;;;;8.03;5.90;;;;;;;21.25;42.70;98815.06;6947033;28;20207;-82
2023/07/08 03:06:37;;;;;;;6.27;5.20;;;;;;;21.40;42.38;98814.25;6946694;28;20210;-83
2023/07/08 03:09:58;;;;;;;7.53;5.90;;;;;;;22.03;41.35;98827.41;6940556;28;20291;-83
2023/07/08 03:13:20;;;;;;;7.13;5.63;;;;;;;22.09;40.85;98829.03;6947462;28;20274;-82
2023/07/08 03:16:41;;;;;;;10.47;7.10;;;;;;;22.15;40.98;98833.41;6946675;28;20280;-82
2023/07/08 03:20:06;;;;;;;8.93;6.33;;;;;;;22.20;40.76;98844.38;6947522;28;20778;-82
2023/07/08 03:23:27;;;;;;;7.37;5.70;;;;;;;21.70;42.17;98841.72;6950638;28;20202;-82
2023/07/08 03:26:54;;;;;;;7.13;5.93;;;;;;;20.44;44.17;98842.53;6953166;28;20321;-83
2023/07/08 03:30:15;;;;;;;6.83;5.80;;;;;;;21.46;42.26;98819.47;6953298;28;20614;-82
2023/07/08 03:33:37;;;;;;;8.23;5.80;;;;;;;21.98;41.20;98841.97;6953536;28;20318;-83
2023/07/08 03:37:00;;;;;;;8.07;6.27;;;;;;;21.49;41.60;98842.81;6952804;28;20222;-83
2023/07/08 03:40:21;;;;;;;6.53;5.83;;;;;;;21.07;42.97;98835.91;6953716;28;20250;-82
2023/07/08 03:43:43;;;;;;;6.67;5.50;;;;;;;21.70;41.72;98809.63;6954121;28;20317;-82
2023/07/08 03:47:05;;;;;;;7.30;5.60;;;;;;;22.23;40.75;98850.16;6953219;28;20278;-83
2023/07/08 03:50:28;;;;;;;7.67;5.87;;;;;;;21.22;42.89;98824.97;6953514;28;20342;-82
2023/07/08 03:53:51;;;;;;;7.77;6.53;;;;;;;21.13;43.40;98825.47;6953779;28;20769;-81
2023/07/08 03:57:13;;;;;;;7.77;5.50;;;;;;;21.69;42.04;98834.59;6953551;28;20229;-82
2023/07/08 04:00:34;;;;;;;8.77;5.90;;;;;;;21.79;41.59;98832.66;6953258;28;20632;-84
2023/07/08 04:03:58;;;;;;;7.00;5.90;;;;;;;21.69;41.68;98813.47;6953335;28;20294;-84
2023/07/08 04:07:19;;;;;;;8.17;5.57;;;;;;;21.69;42.02;98832.69;6952822;28;20312;-84
2023/07/08 04:10:42;;;;;;;8.03;6.00;;;;;;;21.89;41.81;98838.13;6953945;28;20367;-84
2023/07/08 04:14:03;;;;;;;8.87;6.20;;;;;;;21.56;42.27;98835.94;6953791;28;20317;-84
2023/07/08 04:17:25;;;;;;;8.00;6.20;;;;;;;21.27;43.57;98836.75;6953942;28;20317;-83
2023/07/08 04:20:52;;;;;;;8.93;6.30;;;;;;;21.92;41.75;98832.09;6954116;28;20774;-84
2023/07/08 04:24:15;;;;;;;6.77;5.80;;;;;;;21.54;42.36;98838.13;6953809;28;20198;-84
2023/07/08 04:27:38;;;;;;;7.97;6.17;;;;;;;21.93;41.85;98835.66;6954057;28;20231;-84
2023/07/08 04:30:59;;;;;;;7.13;5.57;;;;;;;21.46;42.72;98814.00;6954195;28;20207;-84
2023/07/08 04:34:21;;;;;;;7.50;5.97;;;;;;;21.39;42.76;98807.97;6954639;28;20296;-84
2023/07/08 04:37:42;;;;;;;8.17;6.13;;;;;;;21.58;42.99;98833.75;6954230;28;20261;-83
2023/07/08 04:41:05;;;;;;;6.57;5.70;;;;;;;21.89;42.12;98827.16;6954281;28;20235;-84
2023/07/08 04:44:28;;;;;;;7.63;6.03;;;;;;;22.14;41.64;98829.03;6955393;28;20219;-83
2023/07/08 04:47:52;;;;;;;9.67;5.93;;;;;;;22.54;41.18;98834.41;6954444;28;20432;-84
2023/07/08 04:51:13;;;;;;;8.23;5.70;;;;;;;23.05;39.95;98825.63;6955488;28;20211;-84
2023/07/08 04:54:35;;;;;;;7.63;6.60;;;;;;;22.89;39.91;98793.00;6955230;28;20273;-84
2023/07/08 04:57:56;;;;;;;7.73;5.77;;;;;;;23.70;38.47;98829.81;6954421;28;20307;-84
2023/07/08 05:01:19;;;;;;;8.57;5.90;;;;;;;23.81;38.51;98831.38;6956236;28;20296;-84
2023/07/08 05:04:41;;;;;;;8.20;5.80;;;;;;;22.71;39.73;98766.97;6954750;28;20209;-84
2023/07/08 05:08:02;;;;;;;8.03;6.10;;;;;;;23.59;38.99;98792.50;6955515;28;20654;-83
2023/07/08 05:11:24;;;;;;;8.33;6.23;;;;;;;24.13;37.92;98834.41;6949902;28;20248;-83
2023/07/08 05:14:45;;;;;;;8.37;5.93;;;;;;;23.61;39.08;98828.81;6956212;28;20260;-84
2023/07/08 05:18:08;;;;;;;9.00;6.37;;;;;;;23.78;39.97;98821.75;6955694;28;20313;-84
2023/07/08 05:21:33;;;;;;;6.60;5.73;;;;;;;24.90;37.85;98828.53;6955496;28;20249;-83
2023/07/08 05:24:55;;;;;;;8.27;6.27;;;;;;;25.52;36.11;98836.44;6956268;28;20214;-83
2023/07/08 05:28:17;;;;;;;10.00;6.60;;;;;;;24.54;38.07;98822.59;6955767;28;20714;-84
2023/07/08 05:31:38;;;;;;;6.83;5.90;;;;;;;25.59;36.93;98826.66;6955069;28;20319;-84
2023/07/08 05:35:01;;;;;;;6.13;5.23;;;;;;;25.95;36.56;98821.38;6949599;28;20297;-87
2023/07/08 05:38:24;;;;;;;6.97;6.20;;;;;;;26.86;34.98;98816.50;6950051;28;20221;-83
2023/07/08 05:41:45;;;;;;;10.93;6.43;;;;;;;27.13;33.97;98823.94;6950628;28;20304;-85
2023/07/08 05:45:07;;;;;;;7.30;6.40;;;;;;;26.94;34.58;98828.75;6946432;28;20567;-83
2023/07/08 05:48:29;;;;;;;7.37;6.57;;;;;;;27.83;32.67;98849.97;6922663;28;20732;-84
2023/07/08 05:51:52;;;;;;;8.40;6.03;;;;;;;27.37;33.56;98836.38;6949359;28;20274;-85
2023/07/08 05:55:13;;;;;;;6.83;5.73;;;;;;;28.75;31.77;98839.69;6967301;28;20227;-83
2023/07/08 05:58:35;;;;;;;7.27;5.90;;;;;;;28.77;31.07;98851.31;6963561;28;20262;-84
2023/07/08 06:01:57;;;;;;;7.20;6.20;;;;;;;28.42;31.76;98857.84;6966851;28;20229;-84
2023/07/08 06:05:18;;;;;;;7.40;6.37;;;;;;;28.23;31.69;98858.06;6963282;28;20272;-84
2023/07/08 06:08:41;;;;;;;8.10;6.07;;;;;;;28.83;31.64;98864.69;6946825;28;20276;-84
2023/07/08 06:12:04;;;;;;;7.00;6.03;;;;;;;28.72;31.92;98868.09;6947462;28;20328;-84
2023/07/08 06:15:25;;;;;;;6.93;6.23;;;;;;;28.84;31.76;98869.09;6947550;28;20292;-85
2023/07/08 06:18:47;;;;;;;10.07;6.20;;;;;;;28.80;31.49;98870.06;6957942;28;20255;-84
2023/07/08 06:22:08;;;;;;;9.27;6.40;;;;;;;28.55;32.09;98879.13;6963305;28;20203;-85
2023/07/08 06:25:32;;;;;;;8.23;6.83;;;;;;;28.68;32.15;98884.56;6962547;28;20219;-85
2023/07/08 06:28:54;;;;;;;9.60;6.60;;;;;;;28.87;31.14;98882.34;6960022;28;20247;-84
2023/07/08 06:32:15;;;;;;;7.37;6.60;;;;;;;29.11;30.43;98884.72;6955962;28;20261;-83
2023/07/08 06:35:37;;;;;;;11.27;7.23;;;;;;;30.06;29.11;98893.63;6954210;28;20255;-83
2023/07/08 06:38:58;;;;;;;9.13;6.73;;;;;;;29.28;29.98;98887.53;6956005;28;20739;-83
2023/07/08 06:42:21;;;;;;;7.90;6.60;;;;;;;29.61;29.45;98878.44;6949104;28;20250;-83
2023/07/08 06:45:45;;;;;;;7.13;6.43;;;;;;;30.12;29.60;98897.06;6953455;28;20205;-83
2023/07/08 06:49:08;;;;;;;10.57;6.27;;;;;;;30.02;29.47;98892.63;6952020;28;20296;-85
2023/07/08 06:52:33;;;;;;;8.73;6.50;;;;;;;30.08;29.42;98898.88;6953276;28;20248;-83
2023/07/08 06:55:56;;;;;;;6.97;6.17;;;;;;;30.12;29.01;98900.69;6939893;28;20217;-83
2023/07/08 06:59:19;;;;;;;6.83;5.93;;;;;;;30.36;28.82;98911.28;6926838;28;20366;-83
2023/07/08 07:02:41;;;;;;;7.03;5.97;;;;;;;30.88;28.91;98882.09;6958143;28;20291;-83
2023/07/08 07:06:02;;;;;;;8.63;6.00;;;;;;;30.95;28.37;98874.88;6959799;28;20249;-83
2023/07/08 07:09:24;;;;;;;7.27;5.87;;;;;;;31.45;27.04;98914.75;6959615;28;20402;-83
2023/07/08 07:12:46;;;;;;;6.70;5.93;;;;;;;31.60;27.15;98907.75;6958533;28;20292;-83
2023/07/08 07:16:08;;;;;;;7.07;6.37;;;;;;;31.62;26.59;98911.03;6949784;28;20282;-83
2023/07/08 07:19:30;;;;;;;10.50;6.53;;;;;;;30.76;27.81;98907.06;6948101;28;20410;-83
2023/07/08 07:22:52;;;;;;;9.53;6.23;;;;;;;31.26;26.26;98846.69;6948550;28;20290;-84
2023/07/08 07:26:13;;;;;;;7.60;6.07;;;;;;;31.71;26.73;98915.38;6944352;28;20297;-83
2023/07/08 07:29:45;;;;;;;6.87;6.07;;;;;;;31.54;27.14;98928.63;6949065;28;20235;-82
2023/07/08 07:33:08;;;;;;;7.50;5.47;;;;;;;30.85;27.32;98916.22;6945984;28;20276;-82
2023/07/08 07:36:29;;;;;;;6.20;5.40;;;;;;;31.26;27.75;98916.34;6945026;28;20265;-82
2023/07/08 07:39:51;;;;;;;7.33;5.33;;;;;;;31.43;27.58;98916.25;6945819;28;20208;-84
2023/07/08 07:43:12;;;;;;;5.90;5.30;;;;;;;31.47;27.23;98909.66;6945309;28;20213;-82
2023/07/08 07:46:35;;;;;;;6.40;5.23;;;;;;;31.61;27.11;98901.81;6938715;28;20237;-82
2023/07/08 07:49:58;;;;;;;7.47;5.43;;;;;;;32.03;26.86;98923.03;6947533;28;20216;-83
2023/07/08 07:53:19;;;;;;;9.13;5.30;;;;;;;31.31;27.73;98925.31;6945563;28;20602;-82
2023/07/08 07:56:41;;;;;;;7.97;6.37;;;;;;;31.81;28.23;98922.53;6944981;28;20715;-82
2023/07/08 08:00:03;;;;;;;5.97;5.37;;;;;;;32.06;27.17;98930.69;6945834;28;20298;-82
2023/07/08 08:03:25;;;;;;;7.97;5.83;;;;;;;32.21;27.19;98924.47;6934965;28;20618;-85
2023/07/08 08:06:48;;;;;;;7.93;5.93;;;;;;;32.26;27.38;98929.06;6915104;28;20282;-85
2023/07/08 08:10:10;;;;;;;6.80;5.53;;;;;;;32.75;26.73;98931.63;6919625;28;20214;-84
2023/07/08 08:13:31;;;;;;;7.63;5.47;;;;;;;32.41;26.88;98928.41;6920861;28;20288;-84
2023/07/08 08:16:53;;;;;;;7.13;5.10;;;;;;;31.36;27.21;98927.13;6921027;28;20863;-85
2023/07/08 08:20:14;;;;;;;6.70;5.40;;;;;;;31.87;27.35;98923.97;6921000;28;20213;-85
2023/07/08 08:23:37;;;;;;;8.27;5.40;;;;;;;33.08;25.86;98929.59;6920308;28;20295;-85
2023/07/08 08:26:59;;;;;;;6.50;4.93;;;;;;;33.35;25.48;98936.47;6919911;28;20314;-84
2023/07/08 08:30:20;;;;;;;8.10;5.10;;;;;;;33.08;25.10;98931.59;6920612;28;20212;-84
2023/07/08 08:33:42;;;;;;;7.33;5.00;;;;;;;34.10;25.06;98930.06;6920208;28;20289;-83
2023/07/08 08:37:04;;;;;;;5.83;5.23;;;;;;;33.76;24.69;98911.00;6920927;28;20822;-85
2023/07/08 08:40:27;;;;;;;9.10;4.90;;;;;;;33.86;24.76;98907.75;6921752;28;20231;-84
2023/07/08 08:43:49;;;;;;;6.37;5.43;;;;;;;34.38;24.42;98917.69;6920541;28;20188;-84
2023/07/08 08:47:18;;;;;;;5.47;4.53;;;;;;;34.97;23.33;98934.53;6920798;28;20285;-85
2023/07/08 08:50:44;;;;;;;7.10;4.73;;;;;;;34.11;24.12;98935.28;6922870;28;20188;-85
2023/07/08 08:54:05;;;;;;;7.33;5.00;;;;;;;33.97;24.71;98908.88;6922307;28;20345;-84
2023/07/08 08:57:34;;;;;;;5.57;4.93;;;;;;;35.36;22.40;98902.69;6918410;28;20362;-84
2023/07/08 09:00:57;;;;;;;6.70;5.17;;;;;;;36.27;22.17;98922.41;6918724;28;20261;-84
2023/07/08 09:04:22;;;;;;;5.57;5.03;;;;;;;36.31;21.78;98933.72;6918179;28;20294;-85
2023/07/08 09:07:52;;;;;;;5.90;4.77;;;;;;;36.12;22.41;98933.66;6917826;28;20649;-85
2023/07/08 09:11:25;;;;;;;6.70;5.40;;;;;;;35.83;22.66;98917.41;6917868;28;20277;-85
2023/07/08 09:14:48;;;;;;;5.43;4.80;;;;;;;35.90;22.74;98931.59;6917741;28;20373;-85
2023/07/08 09:18:18;;;;;;;4.80;4.30;;;;;;;35.66;22.18;98915.00;6917149;28;20286;-85
2023/07/08 09:21:46;;;;;;;10.20;5.30;;;;;;;34.95;22.87;98878.03;6917281;28;20233;-84
2023/07/08 09:25:25;;;;;;;7.20;4.50;;;;;;;33.62;24.87;98939.38;6917218;28;20193;-85
2023/07/08 09:28:47;;;;;;;5.73;4.70;;;;;;;35.33;23.08;98912.63;6917225;28;20424;-85
2023/07/08 09:32:18;;;;;;;5.63;4.23;;;;;;;35.94;22.53;98936.09;6916773;28;20290;-84
2023/07/08 09:35:41;;;;;;;5.93;4.47;;;;;;;36.48;21.44;98934.03;6916916;28;20211;-85
2023/07/08 09:39:03;;;;;;;6.33;4.20;;;;;;;34.97;22.66;98932.50;6917552;28;20271;-85
2023/07/08 09:42:29;;;;;;;5.00;4.23;;;;;;;34.61;23.38;98938.34;6916964;28;20208;-84
2023/07/08 09:45:50;;;;;;;5.17;4.53;;;;;;;33.62;24.85;98933.78;6916867;28;20282;-83
2023/07/08 09:49:22;;;;;;;5.60;4.37;;;;;;;35.34;22.47;98922.69;6916541;28;20236;-84
2023/07/08 09:52:43;;;;;;;4.97;4.10;;;;;;;35.69;21.97;98922.66;6917295;28;20212;-85
2023/07/08 09:56:09;;;;;;;6.47;3.73;;;;;;;35.44;22.32;98921.28;6916280;28;20215;-84
2023/07/08 09:59:34;;;;;;;5.27;4.10;;;;;;;36.71;21.32;98926.47;6916965;28;20293;-85
2023/07/08 10:02:57;;;;;;;3.77;3.47;;;;;;;36.58;20.40;98932.63;6916655;28;20227;-84
2023/07/08 10:06:23;;;;;;;3.47;3.10;;;;;;;35.78;21.45;98921.31;6940331;28;20597;-85
2023/07/08 10:09:47;;;;;;;3.70;2.73;;;;;;;36.90;20.05;98929.22;6943111;28;20235;-85
2023/07/08 10:13:18;;;;;;;3.70;2.73;;;;;;;37.08;20.02;98933.19;6942991;28;20230;-83
2023/07/08 10:16:40;;;;;;;6.70;4.17;;;;;;;36.60;21.76;98919.81;6942265;28;20249;-84
2023/07/08 10:20:01;;;;;;;4.93;3.63;;;;;;;35.78;22.46;98924.13;6943572;28;20302;-85
2023/07/08 10:23:31;;;;;;;4.63;3.90;;;;;;;35.12;23.50;98931.72;6942976;28;20722;-85
2023/07/08 10:26:57;;;;;;;7.50;4.53;;;;;;;34.96;23.63;98936.50;6942839;28;20296;-84
2023/07/08 10:30:22;;;;;;;5.67;3.83;;;;;;;34.96;23.16;98930.09;6942728;28;20644;-83
2023/07/08 10:33:55;;;;;;;6.33;3.70;;;;;;;34.95;23.44;98939.69;6959071;28;20298;-82
2023/07/08 10:37:24;;;;;;;5.57;3.40;;;;;;;34.12;23.42;98936.91;6957026;28;20234;-83
2023/07/08 10:40:50;;;;;;;5.20;3.20;;;;;;;33.68;24.02;98926.78;6944833;28;20281;-82
2023/07/08 10:44:15;;;;;;;3.93;3.03;;;;;;;33.83;24.72;98942.84;6945547;28;20668;-84
2023/07/08 10:47:46;;;;;;;5.33;3.50;;;;;;;34.41;24.14;98931.00;6944193;28;20326;-84
2023/07/08 10:51:15;;;;;;;3.63;3.33;;;;;;;35.37;22.79;98921.94;6945088;28;20245;-84
2023/07/08 10:54:45;;;;;;;3.53;3.00;;;;;;;35.82;21.79;98924.19;6944258;28;20672;-84
2023/07/08 10:58:42;;;;;;;3.93;3.00;;;;;;;36.38;21.15;98920.59;6937568;28;20783;-84
2023/07/08 11:02:19;;;;;;;3.57;3.10;;;;;;;36.04;21.40;98907.44;6944772;28;20195;-84
2023/07/08 11:05:43;;;;;;;4.53;2.77;;;;;;;35.55;22.05;98925.16;6943935;28;20191;-82
2023/07/08 11:09:06;;;;;;;4.50;2.63;;;;;;;35.99;21.14;98926.56;6943639;28;20231;-82
2023/07/08 11:12:32;;;;;;;4.63;2.67;;;;;;;36.75;20.51;98923.75;6943242;28;20215;-84
2023/07/08 11:15:58;;;;;;;2.70;2.30;;;;;;;36.44;20.21;98916.28;6943168;28;20353;-84
2023/07/08 11:19:23;;;;;;;4.53;2.50;;;;;;;36.29;20.91;98913.59;6943326;28;20276;-84
2023/07/08 11:22:49;;;;;;;3.40;2.83;;;;;;;36.39;20.83;98905.38;6943664;28;20680;-84
2023/07/08 11:26:19;;;;;;;3.30;2.50;;;;;;;37.22;19.89;98910.13;6942913;28;20194;-84
2023/07/08 11:29:43;;;;;;;3.83;3.30;;;;;;;37.01;19.79;98910.56;6943182;28;20559;-83
2023/07/08 11:33:10;;;;;;;3.03;2.80;;;;;;;37.04;20.60;98911.81;6943094;28;20388;-85
2023/07/08 11:36:31;;;;;;;3.33;2.63;;;;;;;36.76;20.33;98900.88;6942624;28;20731;-84
2023/07/08 11:39:59;;;;;;;2.93;2.73;;;;;;;37.10;19.11;98901.88;6942471;28;20350;-83
2023/07/08 11:43:22;;;;;;;3.70;2.70;;;;;;;37.19;19.78;98899.66;6942530;28;20244;-83
2023/07/08 11:46:55;;;;;;;3.13;2.47;;;;;;;37.29;19.74;98898.97;6947466;28;20207;-84
2023/07/08 11:50:22;;;;;;;2.63;2.43;;;;;;;37.86;18.72;98899.47;6948197;28;20267;-84
2023/07/08 11:53:48;;;;;;;3.00;2.70;;;;;;;37.97;18.71;98902.41;6947621;28;20222;-83
2023/07/08 11:57:18;;;;;;;3.57;2.27;;;;;;;38.18;18.48;98891.41;6947290;28;20219;-83
2023/07/08 12:00:41;;;;;;;5.27;2.80;;;;;;;36.53;19.82;98893.59;6947779;28;20226;-84
2023/07/08 12:04:18;;;;;;;3.33;2.33;;;;;;;35.28;21.40;98884.06;6946950;28;20294;-83
2023/07/08 12:07:43;;;;;;;3.20;2.60;;;;;;;36.68;19.86;98881.47;6945793;28;20226;-84
2023/07/08 12:11:11;;;;;;;3.30;2.20;;;;;;;36.00;20.60;98870.06;6947281;28;20711;-82
2023/07/08 12:14:33;;;;;;;4.67;2.67;;;;;;;35.51;21.10;98880.19;6947248;28;20301;-84
2023/07/08 12:17:56;;;;;;;3.50;2.40;;;;;;;36.40;20.54;98872.47;6946781;28;20223;-84
2023/07/08 12:21:17;;;;;;;4.37;2.73;;;;;;;36.90;19.47;98863.78;6946965;28;20207;-82
2023/07/08 12:24:41;;;;;;;4.00;2.20;;;;;;;37.43;18.44;98835.28;6946348;28;20203;-84
2023/07/08 12:28:03;;;;;;;3.43;2.20;;;;;;;38.26;18.73;98860.13;6946061;28;20999;-84
2023/07/08 12:31:24;;;;;;;2.23;2.03;;;;;;;36.11;19.85;98859.03;6946234;28;20211;-84
2023/07/08 12:34:46;;;;;;;2.60;2.40;;;;;;;37.43;18.43;98866.25;6945944;28;20231;-83
2023/07/08 12:38:17;;;;;;;4.20;2.43;;;;;;;37.24;19.04;98855.13;6945301;28;20226;-84
2023/07/08 12:41:40;;;;;;;2.80;2.30;;;;;;;38.13;18.23;98857.97;6944916;28;20554;-83
2023/07/08 12:45:02;;;;;;;2.33;2.03;;;;;;;37.97;18.51;98854.53;6946480;28;20570;-81
2023/07/08 12:48:23;;;;;;;4.82;2.20;;;;;;;37.69;19.01;98866.25;6945536;28;20774;-83
2023/07/08 12:51:45;;;;;;;4.35;2.30;;;;;;;38.83;17.88;98859.53;6946721;28;20294;-82
2023/07/08 12:55:09;;;;;;;3.05;2.30;;;;;;;38.39;18.19;98853.03;6945633;28;20314;-82
2023/07/08 12:58:35;;;;;;;3.55;2.30;;;;;;;38.73;17.52;98856.63;6940934;28;20445;-82
2023/07/08 13:01:57;;;;;;;3.50;2.63;;;;;;;39.18;17.15;98850.53;6920044;28;20632;-83
2023/07/08 13:05:19;;;;;;;2.70;2.50;;;;;;;37.91;18.06;98825.88;6919663;28;20202;-81
2023/07/08 13:08:40;;;;;;;3.17;2.40;;;;;;;38.73;17.73;98853.81;6919671;28;20318;-82
2023/07/08 13:12:04;;;;;;;4.67;2.80;;;;;;;36.17;20.38;98826.69;6921584;28;20368;-82
2023/07/08 13:15:30;;;;;;;4.47;2.50;;;;;;;36.25;20.41;98814.44;6923257;28;20740;-82
2023/07/08 13:18:52;;;;;;;3.33;2.33;;;;;;;37.37;18.81;98841.66;6920965;28;20708;-81
2023/07/08 13:22:16;;;;;;;2.60;2.40;;;;;;;37.97;18.01;98843.28;6921657;28;20246;-80
2023/07/08 13:25:39;;;;;;;2.53;2.33;;;;;;;38.32;17.62;98830.41;6921451;28;20210;-79
2023/07/08 13:29:01;;;;;;;3.75;2.35;;;;;;;39.03;16.89;98835.53;6921806;28;20302;-80
2023/07/08 13:32:32;;;;;;;2.97;2.50;;;;;;;38.92;17.00;98822.56;6922438;28;20212;-84
2023/07/08 13:35:55;;;;;;;4.03;2.60;;;;;;;38.43;17.54;98839.03;6921468;28;20345;-84
2023/07/08 13:39:23;;;;;;;2.45;2.20;;;;;;;38.77;17.91;98827.25;6922707;28;20235;-82
2023/07/08 13:42:48;;;;;;;4.00;2.72;;;;;;;38.95;17.66;98833.88;6922439;28;20338;-84
2023/07/08 13:46:31;;;;;;;3.38;2.65;;;;;;;37.81;18.03;98832.22;6927739;28;20211;-83
2023/07/08 13:50:00;;;;;;;4.67;2.50;;;;;;;37.43;18.59;98831.69;6950643;28;20306;-83
2023/07/08 13:53:24;;;;;;;4.53;2.63;;;;;;;38.66;18.16;98800.97;6953015;28;20278;-81
2023/07/08 13:56:46;;;;;;;3.28;2.40;;;;;;;38.73;17.79;98825.59;6950236;28;20207;-82
2023/07/08 14:00:08;;;;;;;3.45;2.60;;;;;;;39.02;18.07;98822.63;6951233;28;20398;-82
2023/07/08 14:03:30;;;;;;;3.17;2.20;;;;;;;38.27;17.91;98819.50;6949334;28;20310;-82
2023/07/08 14:06:53;;;;;;;4.17;2.80;;;;;;;36.62;19.96;98799.44;6923920;28;20293;-82
2023/07/08 14:10:15;;;;;;;2.93;2.20;;;;;;;37.99;19.03;98807.94;6929397;28;20209;-84
2023/07/08 14:13:38;;;;;;;3.90;2.40;;;;;;;37.39;19.86;98806.31;6947601;28;20527;-87
2023/07/08 14:17:00;;;;;;;3.83;2.70;;;;;;;37.78;18.66;98810.44;6946298;28;20445;-84
2023/07/08 14:20:25;;;;;;;3.40;2.57;;;;;;;37.91;18.39;98811.81;6946997;28;20203;-83
2023/07/08 14:23:48;;;;;;;4.63;2.80;;;;;;;37.67;18.75;98791.81;6929480;28;20218;-84
2023/07/08 14:27:11;;;;;;;5.63;2.87;;;;;;;37.67;18.69;98808.72;6945128;28;20219;-82
2023/07/08 14:30:34;;;;;;;5.40;3.10;;;;;;;37.73;18.14;98793.91;6945660;28;20210;-88
2023/07/08 14:34:01;;;;;;;6.90;3.63;;;;;;;37.69;18.89;98797.88;6944400;28;20287;-84
2023/07/08 14:37:23;;;;;;;7.07;3.20;;;;;;;37.98;18.08;98802.69;6943445;28;20227;-83
2023/07/08 14:40:46;;;;;;;5.90;3.00;;;;;;;37.61;19.00;98796.97;6945805;28;20207;-84
2023/07/08 14:44:25;;;;;;;5.33;4.03;;;;;;;36.68;19.89;98786.72;6948412;28;20244;-83
2023/07/08 14:47:46;;;;;;;3.67;2.90;;;;;;;36.99;19.74;98783.59;6947399;28;20611;-82
2023/07/08 14:51:08;;;;;;;5.67;2.70;;;;;;;37.40;19.33;98759.28;6941780;28;20211;-86
2023/07/08 14:54:29;;;;;;;3.57;2.80;;;;;;;37.06;18.83;98783.69;6942345;28;20231;-83
2023/07/08 14:57:52;;;;;;;4.40;3.10;;;;;;;37.80;18.74;98782.75;6942040;28;20227;-84
2023/07/08 15:01:19;;;;;;;4.63;2.53;;;;;;;38.65;18.04;98779.63;6942288;28;20337;-82
2023/07/08 15:04:41;;;;;;;5.90;2.90;;;;;;;38.18;18.84;98785.19;6942606;28;20585;-83
2023/07/08 15:08:04;;;;;;;4.77;2.73;;;;;;;37.74;18.87;98775.03;6941709;28;20273;-81
2023/07/08 15:11:26;;;;;;;3.87;2.93;;;;;;;37.52;19.20;98775.91;6943939;28;20191;-83
2023/07/08 15:14:49;;;;;;;4.73;3.13;;;;;;;37.02;19.67;98779.22;6943796;28;20223;-84
2023/07/08 15:18:12;;;;;;;4.50;3.13;;;;;;;37.16;19.26;98785.06;6936323;28;20227;-82
2023/07/08 15:21:34;;;;;;;4.27;2.70;;;;;;;37.28;19.84;98785.66;6943331;28;20206;-83
2023/07/08 15:24:55;;;;;;;3.87;2.90;;;;;;;37.93;18.78;98780.47;6943324;28;20688;-82
2023/07/08 15:28:19;;;;;;;3.10;2.80;;;;;;;37.85;18.29;98787.22;6942842;28;20223;-82
2023/07/08 15:31:43;;;;;;;7.13;2.70;;;;;;;37.87;18.77;98782.81;6944325;28;20199;-84
2023/07/08 15:35:08;;;;;;;3.22;2.92;;;;;;;37.57;18.78;98781.25;6943441;28;20231;-86
2023/07/08 15:38:29;;;;;;;2.93;2.57;;;;;;;37.93;19.05;98784.09;6941448;28;20223;-82
2023/07/08 15:41:51;;;;;;;3.53;2.97;;;;;;;37.94;18.37;98782.06;6942312;28;20215;-84
2023/07/08 15:45:17;;;;;;;4.20;3.17;;;;;;;38.23;18.31;98776.41;6940004;28;20203;-82
2023/07/08 15:48:40;;;;;;;5.03;2.55;;;;;;;38.28;18.47;98781.69;6942364;28;20223;-82
2023/07/08 15:52:02;;;;;;;4.50;3.03;;;;;;;37.32;19.12;98774.44;6941779;28;20368;-80
2023/07/08 15:55:26;;;;;;;3.67;2.80;;;;;;;36.00;20.44;98774.59;6943066;28;20234;-81
2023/07/08 15:58:48;;;;;;;4.13;3.13;;;;;;;35.64;20.96;98752.63;6947814;28;20662;-81